Time;durP1;ratioP1;P1;durP2;ratioP2;P2;SDS_P1;SDS_P2;PMS_P1;PMS_P2;Temp;Humidity;BMP_temperature;BMP_pressure;BME280_temperature;BME280_humidity;BME280_pressure;Samples;Min_cycle;Max_cycle;Signal;HPM_P1;HPM_P2
2023/12/28 00:00:08;;;;;;;4.00;2.00;;;;;;;4.86;57.11;98648.81;5012651;27;102876;-72
2023/12/28 00:02:40;;;;;;;4.28;2.70;;;;;;;4.93;57.16;98650.78;5017223;27;103594;-72
2023/12/28 00:05:08;;;;;;;3.72;2.40;;;;;;;5.03;56.60;98644.72;4992092;27;105632;-72
2023/12/28 00:07:36;;;;;;;4.90;2.53;;;;;;;5.24;53.60;98640.22;5012963;27;103204;-72
2023/12/28 00:10:07;;;;;;;10.07;2.65;;;;;;;5.44;53.28;98643.72;5036163;27;102954;-72
2023/12/28 00:12:35;;;;;;;5.10;2.58;;;;;;;5.64;52.85;98643.72;5026529;27;104140;-72
2023/12/28 00:15:04;;;;;;;3.83;2.42;;;;;;;5.69;53.21;98652.03;5008282;27;103252;-72
2023/12/28 00:17:32;;;;;;;3.92;2.20;;;;;;;5.70;52.18;98651.06;5058295;27;103193;-72
2023/12/28 00:20:00;;;;;;;3.67;2.28;;;;;;;5.84;51.20;98649.78;5004506;27;102915;-71
2023/12/28 00:22:29;;;;;;;3.65;2.25;;;;;;;5.94;51.87;98647.19;5048908;27;104572;-73
2023/12/28 00:24:57;;;;;;;3.50;2.20;;;;;;;5.97;51.69;98649.53;5030209;27;103434;-72
2023/12/28 00:27:29;;;;;;;3.83;2.10;;;;;;;6.02;51.50;98663.09;5031720;27;104152;-72
2023/12/28 00:30:02;;;;;;;4.10;2.10;;;;;;;6.05;51.08;98660.22;4992187;27;102761;-72
2023/12/28 00:32:30;;;;;;;3.78;2.17;;;;;;;6.08;51.07;98657.31;5016405;27;104142;-72
2023/12/28 00:34:58;;;;;;;3.78;2.10;;;;;;;6.11;50.62;98672.78;5026501;27;104028;-72
2023/12/28 00:37:27;;;;;;;4.00;2.50;;;;;;;6.12;50.65;98677.06;5027049;27;103219;-72
2023/12/28 00:39:55;;;;;;;4.18;2.25;;;;;;;6.21;50.31;98669.31;5052063;27;102569;-72
2023/12/28 00:42:23;;;;;;;3.47;2.28;;;;;;;6.25;50.07;98679.41;5020529;27;103735;-72
2023/12/28 00:44:55;;;;;;;3.53;2.53;;;;;;;6.27;50.39;98666.13;5017946;27;104213;-72
2023/12/28 00:47:23;;;;;;;2.95;1.90;;;;;;;6.27;50.34;98671.38;5005496;27;103410;-72
2023/12/28 00:49:51;;;;;;;3.60;2.15;;;;;;;6.30;50.01;98660.56;5009896;27;102628;-72
2023/12/28 00:52:19;;;;;;;3.15;1.80;;;;;;;6.37;50.00;98666.94;5033653;27;102682;-72
2023/12/28 00:54:47;;;;;;;3.42;1.98;;;;;;;6.47;49.43;98657.22;5018736;27;104062;-72
2023/12/28 00:57:16;;;;;;;3.92;2.03;;;;;;;6.65;48.50;98659.09;5027098;27;104193;-73
2023/12/28 00:59:46;;;;;;;3.22;2.08;;;;;;;6.72;47.69;98662.81;5010800;27;103044;-71
2023/12/28 01:02:17;;;;;;;4.00;2.38;;;;;;;6.71;48.29;98662.97;5030546;27;103874;-71
2023/12/28 01:04:45;;;;;;;3.05;2.20;;;;;;;6.74;49.10;98660.03;5003070;27;104168;-71
2023/12/28 01:07:14;;;;;;;4.07;2.20;;;;;;;6.85;47.38;98669.56;5036175;27;103268;-72
2023/12/28 01:09:42;;;;;;;4.93;2.38;;;;;;;6.82;47.91;98672.50;5032502;27;102761;-72
2023/12/28 01:12:12;;;;;;;3.55;2.40;;;;;;;6.80;48.42;98673.44;5005310;27;102868;-71
2023/12/28 01:14:41;;;;;;;3.30;2.10;;;;;;;6.83;48.15;98679.41;5036149;27;104599;-72
2023/12/28 01:17:09;;;;;;;5.80;2.28;;;;;;;6.86;48.00;98676.47;5026811;27;104160;-71
2023/12/28 01:19:38;;;;;;;4.80;2.30;;;;;;;6.80;48.19;98676.09;5007286;27;102697;-71
2023/12/28 01:22:06;;;;;;;3.13;2.13;;;;;;;6.83;48.55;98674.16;5041146;27;102950;-72
2023/12/28 01:24:37;;;;;;;3.33;1.90;;;;;;;6.80;48.57;98667.38;5005455;27;107450;-71
2023/12/28 01:27:05;;;;;;;3.90;2.40;;;;;;;6.85;47.97;98674.81;5013953;27;104010;-72
2023/12/28 01:29:34;;;;;;;4.90;2.65;;;;;;;6.86;48.00;98676.47;5024698;27;102716;-73
2023/12/28 01:32:04;;;;;;;5.20;2.60;;;;;;;6.85;47.71;98674.81;5047047;27;102833;-70
2023/12/28 01:34:34;;;;;;;8.63;2.65;;;;;;;6.79;47.78;98677.06;5013876;27;103870;-72
2023/12/28 01:37:04;;;;;;;4.00;2.30;;;;;;;6.80;48.05;98689.25;5013075;27;104339;-71
2023/12/28 01:39:32;;;;;;;3.63;2.35;;;;;;;6.77;48.01;98684.28;5026604;27;102793;-70
2023/12/28 01:42:00;;;;;;;3.72;2.30;;;;;;;6.73;48.67;98692.59;5019819;27;104136;-70
2023/12/28 01:44:28;;;;;;;3.53;2.28;;;;;;;6.69;48.26;98693.84;5018062;27;104073;-71
2023/12/28 01:46:57;;;;;;;5.10;2.17;;;;;;;6.68;48.94;98695.69;5010577;27;104111;-71
2023/12/28 01:49:25;;;;;;;3.92;2.17;;;;;;;6.69;48.92;98697.31;5035056;27;103127;-71
2023/12/28 01:51:56;;;;;;;3.80;2.20;;;;;;;6.69;48.74;98707.84;5024374;27;103997;-71
2023/12/28 01:54:26;;;;;;;4.18;2.50;;;;;;;6.68;48.36;98703.56;5044176;27;103253;-71
2023/12/28 01:56:54;;;;;;;4.40;2.53;;;;;;;6.66;48.60;98708.13;5032973;27;104427;-70
2023/12/28 01:59:22;;;;;;;3.75;2.50;;;;;;;6.59;48.44;98713.13;5028250;27;102727;-71
2023/12/28 02:01:50;;;;;;;3.47;2.40;;;;;;;6.52;49.39;98716.47;5037855;27;102708;-70
2023/12/28 02:04:25;;;;;;;4.47;2.67;;;;;;;6.47;49.51;98725.63;5039143;27;103359;-71
2023/12/28 02:06:58;;;;;;;4.70;2.75;;;;;;;6.43;49.98;98726.03;5034954;27;103051;-72
2023/12/28 02:09:28;;;;;;;4.32;2.58;;;;;;;6.37;49.90;98727.44;5010291;27;104606;-71
2023/12/28 02:11:56;;;;;;;4.63;2.78;;;;;;;6.35;49.63;98733.81;5037554;27;104133;-72
2023/12/28 02:14:26;;;;;;;4.90;2.90;;;;;;;6.28;50.22;98730.91;5018541;27;102976;-70
2023/12/28 02:17:01;;;;;;;4.18;2.75;;;;;;;6.26;50.33;98732.84;5028617;27;103301;-71
2023/12/28 02:19:41;;;;;;;4.43;2.58;;;;;;;6.26;50.68;98724.94;5010717;27;102743;-71
2023/12/28 02:22:09;;;;;;;5.00;3.00;;;;;;;6.21;50.60;98724.53;5034331;27;104275;-71
2023/12/28 02:25:04;;;;;;;4.75;2.72;;;;;;;6.17;50.48;98733.69;5008662;27;103503;-71
2023/12/28 02:27:32;;;;;;;4.95;2.90;;;;;;;6.11;50.65;98724.56;5026367;27;103278;-70
2023/12/28 02:30:01;;;;;;;3.40;2.28;;;;;;;6.17;50.67;98725.78;5024690;27;102688;-71
2023/12/28 02:32:50;;;;;;;3.80;2.20;;;;;;;6.17;51.05;98733.69;5038905;27;103988;-72
2023/12/28 02:35:26;;;;;;;3.85;2.60;;;;;;;6.15;51.17;98725.94;5036624;27;104208;-72
2023/12/28 02:37:57;;;;;;;5.32;3.05;;;;;;;6.09;50.61;98727.34;4998283;27;103025;-71
2023/12/28 02:40:28;;;;;;;4.95;3.08;;;;;;;6.08;50.94;98722.22;5023180;27;102589;-72
2023/12/28 02:42:56;;;;;;;5.43;3.15;;;;;;;6.07;51.21;98720.56;5012149;27;102751;-71
2023/12/28 02:45:25;;;;;;;4.03;2.35;;;;;;;6.10;50.82;98728.97;5015712;27;104110;-71
2023/12/28 02:47:53;;;;;;;8.95;3.42;;;;;;;6.03;51.17;98727.88;5042337;27;103139;-71
2023/12/28 02:50:21;;;;;;;4.90;2.80;;;;;;;6.00;50.95;98722.91;5019317;27;103129;-71
2023/12/28 02:52:50;;;;;;;4.22;2.75;;;;;;;5.95;51.69;98720.66;5017875;27;104119;-72
2023/12/28 02:55:18;;;;;;;4.60;2.70;;;;;;;5.96;51.61;98721.47;5013149;27;104125;-72
2023/12/28 02:57:47;;;;;;;6.00;2.83;;;;;;;6.01;52.29;98723.72;5029098;27;104432;-72
2023/12/28 03:00:16;;;;;;;4.43;2.58;;;;;;;6.00;51.88;98727.31;5038148;27;102664;-72
2023/12/28 03:02:44;;;;;;;4.07;2.53;;;;;;;6.01;51.63;98724.53;5003391;27;103988;-72
2023/12/28 03:05:12;;;;;;;4.25;2.50;;;;;;;5.99;51.65;98726.50;4998254;27;104289;-71
2023/12/28 03:07:42;;;;;;;5.35;2.80;;;;;;;6.02;51.25;98725.41;5020925;27;103188;-72
2023/12/28 03:10:10;;;;;;;4.80;2.25;;;;;;;6.03;51.48;98727.88;5056645;27;102637;-70
2023/12/28 03:12:41;;;;;;;4.55;2.60;;;;;;;6.04;51.45;98719.03;5007595;27;102755;-71
2023/12/28 03:15:11;;;;;;;3.53;2.22;;;;;;;6.09;51.02;98714.19;5018860;27;104111;-71
2023/12/28 03:17:39;;;;;;;4.38;2.42;;;;;;;6.09;51.23;98722.06;5022322;27;103247;-72
2023/12/28 03:20:09;;;;;;;4.38;2.50;;;;;;;6.13;51.70;98719.97;5042034;27;102764;-73
2023/12/28 03:22:38;;;;;;;3.88;2.35;;;;;;;6.13;51.00;98723.44;5028602;27;104054;-72
2023/12/28 03:25:06;;;;;;;3.97;2.65;;;;;;;6.17;51.38;98723.16;4991757;27;103212;-72
2023/12/28 03:27:34;;;;;;;3.90;2.40;;;;;;;6.16;51.89;98721.50;5036568;27;103410;-72
2023/12/28 03:30:03;;;;;;;3.95;2.53;;;;;;;6.18;51.36;98724.81;5020387;27;102748;-72
2023/12/28 03:32:34;;;;;;;3.58;2.30;;;;;;;6.22;51.62;98726.22;5045795;27;104076;-73
2023/12/28 03:35:03;;;;;;;3.75;2.67;;;;;;;6.19;50.50;98721.25;5017374;27;104519;-72
2023/12/28 03:37:31;;;;;;;3.70;2.42;;;;;;;6.24;51.20;98719.84;5009493;27;103311;-71
2023/12/28 03:39:59;;;;;;;5.30;2.50;;;;;;;6.28;50.58;98715.94;5024573;27;102859;-72
2023/12/28 03:42:29;;;;;;;4.20;2.58;;;;;;;6.31;50.46;98712.22;5019851;27;102772;-72
2023/12/28 03:44:57;;;;;;;3.92;2.17;;;;;;;6.34;49.88;98706.69;5016605;27;103996;-71
2023/12/28 03:47:25;;;;;;;3.70;2.40;;;;;;;6.48;49.90;98705.41;5021037;27;104289;-72
2023/12/28 03:49:56;;;;;;;3.63;2.13;;;;;;;6.57;49.66;98699.28;5018935;27;102734;-75
2023/12/28 03:52:27;;;;;;;3.53;2.00;;;;;;;6.75;48.85;98695.94;5001492;27;102733;-72
2023/12/28 03:54:55;;;;;;;5.03;2.17;;;;;;;6.94;48.30;98695.00;5018683;27;103296;-71
2023/12/28 03:57:23;;;;;;;2.90;2.08;;;;;;;7.27;47.07;98690.97;4998901;27;103235;-71
2023/12/28 03:59:51;;;;;;;2.85;1.90;;;;;;;7.30;46.18;98687.22;5042954;27;102614;-71
2023/12/28 04:02:19;;;;;;;4.22;2.30;;;;;;;7.41;46.11;98686.19;5015697;27;103869;-72
2023/12/28 04:04:47;;;;;;;3.30;2.15;;;;;;;7.54;45.69;98675.28;5013097;27;104216;-71
2023/12/28 04:07:16;;;;;;;5.35;2.08;;;;;;;7.68;45.83;98687.94;5052090;27;102986;-71
2023/12/28 04:09:44;;;;;;;3.60;1.92;;;;;;;7.75;45.55;98689.00;5006336;27;102585;-71
2023/12/28 04:12:12;;;;;;;3.60;2.33;;;;;;;7.75;45.49;98686.34;4991077;27;104491;-71
2023/12/28 04:14:40;;;;;;;3.75;2.03;;;;;;;7.84;45.10;98686.47;5033222;27;104128;-71
2023/12/28 04:17:08;;;;;;;3.40;2.10;;;;;;;7.90;45.53;98680.56;5018211;27;103182;-70
2023/12/28 04:19:36;;;;;;;3.10;2.00;;;;;;;7.96;44.85;98690.50;5005300;27;104381;-71
2023/12/28 04:22:04;;;;;;;3.67;2.10;;;;;;;7.96;44.60;98695.78;5028737;27;102789;-71
2023/12/28 04:24:34;;;;;;;3.00;1.98;;;;;;;7.94;45.41;98698.56;5020682;27;103930;-71
2023/12/28 04:27:02;;;;;;;2.75;1.73;;;;;;;7.95;45.50;98694.13;5001116;27;105765;-71
2023/12/28 04:29:30;;;;;;;3.60;2.15;;;;;;;8.02;45.62;98686.44;5027949;27;102768;-71
2023/12/28 04:31:58;;;;;;;3.05;2.08;;;;;;;7.92;45.25;98684.69;5048205;27;102877;-71
2023/12/28 04:34:26;;;;;;;3.08;1.90;;;;;;;7.99;45.57;98678.81;5016356;27;103208;-71
2023/12/28 04:36:54;;;;;;;2.90;1.85;;;;;;;8.02;45.11;98684.63;5021037;27;103208;-70
2023/12/28 04:39:22;;;;;;;6.63;2.22;;;;;;;8.03;45.66;98674.91;5009588;27;102773;-71
2023/12/28 04:41:53;;;;;;;3.42;2.00;;;;;;;8.01;45.46;98672.41;5025423;27;104068;-71
2023/12/28 04:44:21;;;;;;;5.72;2.25;;;;;;;8.07;45.15;98666.53;5026503;27;103207;-72
2023/12/28 04:46:49;;;;;;;3.15;1.90;;;;;;;8.10;45.04;98679.41;5017972;27;103287;-71
2023/12/28 04:49:17;;;;;;;3.70;2.10;;;;;;;8.06;45.41;98669.34;5027098;27;102619;-71
2023/12/28 04:51:45;;;;;;;3.30;1.85;;;;;;;8.08;44.80;98668.22;5029534;27;104017;-71
2023/12/28 04:54:13;;;;;;;3.33;2.20;;;;;;;8.17;44.83;98665.63;5026106;27;104162;-71
2023/12/28 04:56:42;;;;;;;3.08;2.13;;;;;;;8.19;44.71;98659.22;5022218;27;102878;-71
2023/12/28 04:59:11;;;;;;;4.10;2.40;;;;;;;8.26;44.14;98657.59;5028850;27;102634;-71
2023/12/28 05:01:42;;;;;;;5.20;2.20;;;;;;;8.25;44.54;98668.31;5020840;27;104411;-71
2023/12/28 05:04:10;;;;;;;3.30;2.00;;;;;;;8.25;44.26;98663.03;5034455;27;104471;-70
2023/12/28 05:06:44;;;;;;;3.13;2.05;;;;;;;8.25;44.85;98663.88;5001596;27;105483;-71
2023/12/28 05:09:14;;;;;;;2.97;1.75;;;;;;;8.25;44.63;98673.59;5027525;27;102993;-71
2023/12/28 05:11:45;;;;;;;3.17;1.90;;;;;;;8.25;44.99;98686.78;5021343;27;102618;-71
2023/12/28 05:14:14;;;;;;;3.30;1.98;;;;;;;8.20;44.86;98686.41;5025764;27;103115;-71
2023/12/28 05:16:42;;;;;;;3.45;2.05;;;;;;;8.20;45.01;98689.03;5030943;27;103224;-61
2023/12/28 05:19:12;;;;;;;3.35;1.85;;;;;;;8.18;45.57;98678.66;5029808;27;104436;-71
2023/12/28 05:21:43;;;;;;;3.78;2.05;;;;;;;8.19;45.92;98690.03;5032409;27;103986;-70
2023/12/28 05:24:11;;;;;;;3.58;2.28;;;;;;;8.17;45.43;98686.72;5007308;27;103206;-71
2023/12/28 05:26:39;;;;;;;3.72;1.98;;;;;;;8.10;46.10;98692.59;5015593;27;103453;-71
2023/12/28 05:29:07;;;;;;;3.65;2.15;;;;;;;8.06;46.63;98693.91;5008419;27;102751;-71
2023/12/28 05:31:36;;;;;;;3.88;2.17;;;;;;;8.03;46.15;98696.84;5008180;27;104069;-70
2023/12/28 05:34:06;;;;;;;3.80;2.13;;;;;;;8.01;46.55;98704.06;5027227;27;103298;-70
2023/12/28 05:36:34;;;;;;;4.82;2.00;;;;;;;8.01;46.39;98717.25;5026272;27;103277;-69
2023/12/28 05:39:02;;;;;;;3.60;2.20;;;;;;;8.02;46.75;98737.38;5022536;27;102764;-71
2023/12/28 05:41:30;;;;;;;4.53;2.08;;;;;;;8.02;47.33;98728.63;4964433;27;104452;-70
2023/12/28 05:43:58;;;;;;;2.88;1.83;;;;;;;8.01;47.39;98733.09;5033544;27;104329;-70
2023/12/28 05:46:26;;;;;;;2.72;1.70;;;;;;;8.00;47.65;98736.69;5025612;27;103338;-70
2023/12/28 05:48:55;;;;;;;3.70;1.90;;;;;;;7.96;47.86;98732.72;5040742;27;103013;-70
2023/12/28 05:51:23;;;;;;;3.72;2.10;;;;;;;7.92;47.60;98741.91;5035040;27;103949;-70
2023/12/28 05:53:51;;;;;;;3.53;2.08;;;;;;;7.90;48.52;98742.06;5037365;27;104247;-70
2023/12/28 05:56:19;;;;;;;6.68;2.45;;;;;;;7.81;48.46;98737.69;5034501;27;103044;-71
2023/12/28 05:58:47;;;;;;;4.07;1.65;;;;;;;7.80;49.09;98734.19;5046367;27;103001;-71
2023/12/28 06:01:16;;;;;;;4.47;2.17;;;;;;;7.77;49.26;98738.97;5017139;27;102667;-70
2023/12/28 06:03:49;;;;;;;3.53;1.95;;;;;;;7.75;49.79;98747.00;5009588;27;103326;-70
2023/12/28 06:06:19;;;;;;;4.65;2.38;;;;;;;7.74;49.70;98745.38;5014199;27;103920;-71
2023/12/28 06:08:47;;;;;;;3.00;1.73;;;;;;;7.74;50.01;98749.78;5030458;27;102986;-66
2023/12/28 06:11:15;;;;;;;4.53;2.35;;;;;;;7.74;49.80;98739.25;5009495;27;103934;-67
2023/12/28 06:13:43;;;;;;;4.68;2.20;;;;;;;7.76;50.33;98746.03;5032289;27;103329;-65
2023/12/28 06:16:14;;;;;;;3.45;2.08;;;;;;;7.76;50.06;98763.66;5027235;27;103181;-66
2023/12/28 06:18:42;;;;;;;5.28;2.03;;;;;;;7.73;50.72;98763.94;5037822;27;102736;-66
2023/12/28 06:21:10;;;;;;;3.33;2.13;;;;;;;7.76;50.62;98768.94;5021753;27;104058;-66
2023/12/28 06:23:40;;;;;;;4.47;2.00;;;;;;;7.81;50.84;98764.06;5025732;27;102926;-66
2023/12/28 06:26:09;;;;;;;5.22;2.70;;;;;;;7.84;51.63;98766.38;5050686;27;103150;-66
2023/12/28 06:28:37;;;;;;;3.22;2.00;;;;;;;7.80;51.90;98765.03;5035862;27;102547;-67
2023/12/28 06:31:05;;;;;;;3.33;1.83;;;;;;;7.83;52.00;98748.06;5012320;27;102715;-67
2023/12/28 06:33:33;;;;;;;3.45;2.00;;;;;;;7.79;51.91;98748.38;5023197;27;103371;-66
2023/12/28 06:36:06;;;;;;;2.95;2.00;;;;;;;7.79;52.30;98748.38;5029937;27;103037;-66
2023/12/28 06:38:34;;;;;;;4.20;2.70;;;;;;;7.75;52.97;98743.53;5021230;27;102628;-66
2023/12/28 06:41:10;;;;;;;4.53;2.30;;;;;;;7.72;52.59;98749.94;5031158;27;104357;-67
2023/12/28 06:43:38;;;;;;;12.63;2.63;;;;;;;7.74;53.07;98745.38;5034495;27;104497;-66
2023/12/28 06:46:06;;;;;;;6.10;2.38;;;;;;;7.78;52.67;98762.53;5012330;27;103456;-66
2023/12/28 06:48:34;;;;;;;4.57;2.35;;;;;;;7.83;52.53;98774.44;5014229;27;102742;-66
2023/12/28 06:51:03;;;;;;;4.75;2.50;;;;;;;7.91;52.03;98782.44;5031259;27;104265;-66
2023/12/28 06:53:31;;;;;;;6.28;2.55;;;;;;;7.94;52.42;98772.41;5026275;27;104401;-62
2023/12/28 06:55:59;;;;;;;3.22;2.25;;;;;;;7.94;53.60;98782.16;5029079;27;103163;-67
2023/12/28 06:58:29;;;;;;;5.55;2.83;;;;;;;7.92;53.07;98790.19;5013645;27;102791;-66
2023/12/28 07:00:57;;;;;;;3.47;2.28;;;;;;;7.90;53.67;98783.41;5020098;27;103072;-67
2023/12/28 07:03:30;;;;;;;4.35;2.50;;;;;;;7.86;53.89;98789.97;5043116;27;103898;-66
2023/12/28 07:05:59;;;;;;;5.25;2.50;;;;;;;7.72;54.37;98789.50;5002918;27;103254;-67
2023/12/28 07:08:29;;;;;;;6.07;2.80;;;;;;;7.57;54.35;98790.94;5003598;27;102840;-67
2023/12/28 07:11:02;;;;;;;4.68;2.92;;;;;;;7.49;55.18;98793.50;5036313;27;102802;-67
2023/12/28 07:13:31;;;;;;;4.35;2.95;;;;;;;7.45;55.51;98809.63;5008121;27;104327;-66
2023/12/28 07:15:59;;;;;;;5.55;3.40;;;;;;;7.28;56.12;98802.44;5023202;27;104257;-66
2023/12/28 07:18:28;;;;;;;5.45;3.15;;;;;;;7.34;55.56;98815.06;4995181;27;102614;-65
2023/12/28 07:20:57;;;;;;;6.18;3.13;;;;;;;7.39;55.86;98815.47;5012547;27;104176;-65
2023/12/28 07:23:25;;;;;;;4.03;2.50;;;;;;;7.43;55.81;98821.28;5020337;27;104090;-66
2023/12/28 07:25:53;;;;;;;5.60;3.20;;;;;;;7.43;55.57;98822.09;5046389;27;103164;-66
2023/12/28 07:28:21;;;;;;;6.05;3.10;;;;;;;7.40;55.53;98821.53;5029522;27;102623;-67
2023/12/28 07:30:56;;;;;;;4.13;2.83;;;;;;;7.47;55.88;98818.19;5036894;27;103913;-67
2023/12/28 07:33:25;;;;;;;4.80;2.80;;;;;;;7.28;55.58;98821.75;5028080;27;104003;-66
2023/12/28 07:35:53;;;;;;;6.78;3.15;;;;;;;7.42;54.63;98820.41;5013509;27;104367;-66
2023/12/28 07:38:21;;;;;;;4.38;2.60;;;;;;;7.32;55.29;98819.63;5008208;27;104426;-66
2023/12/28 07:40:49;;;;;;;5.47;2.83;;;;;;;7.34;55.55;98824.78;5033975;27;104114;-65
2023/12/28 07:43:17;;;;;;;4.65;3.03;;;;;;;7.43;55.09;98832.63;5018897;27;103469;-66
2023/12/28 07:45:45;;;;;;;4.70;2.70;;;;;;;7.52;55.08;98830.94;5032679;27;103294;-66
2023/12/28 07:48:15;;;;;;;4.07;2.28;;;;;;;7.58;55.08;98834.78;5019566;27;102671;-65
2023/12/28 07:50:43;;;;;;;5.82;2.90;;;;;;;7.55;54.90;98832.47;5032221;27;104049;-66
2023/12/28 07:53:11;;;;;;;4.70;2.92;;;;;;;7.54;55.33;98836.06;5031803;27;103338;-65
2023/12/28 07:55:39;;;;;;;4.63;2.85;;;;;;;7.61;55.35;98839.75;5015915;27;103154;-66
2023/12/28 07:58:07;;;;;;;6.22;3.10;;;;;;;7.58;55.41;98842.69;5023773;27;102597;-66
2023/12/28 08:00:35;;;;;;;5.68;3.50;;;;;;;7.64;55.52;98842.13;5029593;27;103669;-66
2023/12/28 08:03:04;;;;;;;7.95;3.17;;;;;;;7.67;55.47;98833.91;5020753;27;103837;-65
2023/12/28 08:05:35;;;;;;;5.78;2.97;;;;;;;7.67;55.56;98833.09;5011138;27;103030;-65
2023/12/28 08:08:04;;;;;;;4.72;2.75;;;;;;;7.69;56.00;98837.25;5015029;27;102620;-65
2023/12/28 08:10:32;;;;;;;5.07;2.35;;;;;;;7.75;54.73;98839.28;5026581;27;103898;-70
2023/12/28 08:13:03;;;;;;;5.55;2.78;;;;;;;7.75;55.77;98833.19;5025258;27;103372;-70
2023/12/28 08:15:31;;;;;;;5.22;2.95;;;;;;;7.72;56.64;98839.59;5011717;27;103204;-70
2023/12/28 08:17:59;;;;;;;4.43;2.60;;;;;;;7.74;56.99;98839.44;5010892;27;102633;-71
2023/12/28 08:20:27;;;;;;;4.68;2.63;;;;;;;7.72;56.38;98836.94;5031150;27;102792;-70
2023/12/28 08:22:57;;;;;;;4.72;2.45;;;;;;;7.80;56.74;98838.84;5038639;27;103913;-71
2023/12/28 08:25:42;;;;;;;4.05;2.30;;;;;;;7.77;57.88;98845.25;5024735;27;103283;-71
2023/12/28 08:28:10;;;;;;;4.20;2.40;;;;;;;7.86;57.34;98842.69;5013317;27;103976;-70
2023/12/28 08:30:47;;;;;;;5.63;2.88;;;;;;;8.31;57.00;98844.50;5101788;27;102663;-69
2023/12/28 08:33:15;;;;;;;6.00;2.63;;;;;;;8.10;57.38;98842.16;5088841;27;102613;-70
2023/12/28 08:35:46;;;;;;;5.68;3.72;;;;;;;8.04;57.97;98835.66;5084745;27;104043;-69
2023/12/28 08:38:14;;;;;;;6.90;3.92;;;;;;;8.01;58.40;98841.22;5091611;27;103178;-70
2023/12/28 08:40:44;;;;;;;5.53;3.70;;;;;;;8.00;58.19;98844.03;5088213;27;103005;-70
2023/12/28 08:43:12;;;;;;;6.18;3.75;;;;;;;7.86;59.16;98837.41;5067152;27;104219;-70
2023/12/28 08:45:40;;;;;;;4.68;3.13;;;;;;;7.84;58.91;98849.94;5085924;27;103474;-70
2023/12/28 08:48:11;;;;;;;3.70;2.47;;;;;;;7.94;57.99;98840.19;5087354;27;103229;-67
2023/12/28 08:50:39;;;;;;;7.00;3.55;;;;;;;7.92;58.47;98842.13;5090349;27;102720;-66
2023/12/28 08:53:07;;;;;;;5.43;3.10;;;;;;;7.91;57.46;98840.44;5093356;27;102677;-69
2023/12/28 08:55:35;;;;;;;5.07;3.08;;;;;;;8.01;57.06;98841.22;5087004;27;104192;-70
2023/12/28 08:58:03;;;;;;;4.53;2.40;;;;;;;8.10;57.25;98850.88;5082990;27;103286;-66
2023/12/28 09:00:34;;;;;;;4.80;2.92;;;;;;;8.19;57.96;98850.97;5090332;27;102635;-66
2023/12/28 09:03:05;;;;;;;5.35;3.30;;;;;;;8.15;57.93;98847.81;5086352;27;102621;-67
2023/12/28 09:05:35;;;;;;;6.95;3.33;;;;;;;8.19;58.73;98843.06;5068688;27;103293;-66
2023/12/28 09:08:04;;;;;;;8.48;5.43;;;;;;;7.98;59.11;98838.91;5067995;27;103217;-65
2023/12/28 09:10:32;;;;;;;6.47;4.18;;;;;;;7.86;59.56;98840.06;5071427;27;102750;-65
2023/12/28 09:13:00;;;;;;;7.70;4.20;;;;;;;7.96;59.85;98846.97;5083444;27;103966;-65
2023/12/28 09:15:28;;;;;;;11.13;4.82;;;;;;;8.02;60.27;98844.69;5089670;27;103424;-66
2023/12/28 09:17:57;;;;;;;9.10;4.47;;;;;;;8.03;60.69;98836.66;5089254;27;103187;-65
2023/12/28 09:20:25;;;;;;;8.30;5.30;;;;;;;7.92;61.44;98836.84;5084402;27;103610;-66
2023/12/28 09:22:56;;;;;;;7.95;4.10;;;;;;;7.87;61.58;98845.19;5084790;27;102808;-65
2023/12/28 09:25:24;;;;;;;5.82;3.47;;;;;;;7.98;61.61;98846.81;5068222;27;104199;-66
2023/12/28 09:27:53;;;;;;;5.82;4.10;;;;;;;7.98;63.73;98838.91;5073183;27;103307;-66
2023/12/28 09:30:21;;;;;;;7.50;3.75;;;;;;;8.02;63.71;98842.03;5068408;27;102745;-66
2023/12/28 09:32:50;;;;;;;7.15;4.15;;;;;;;8.12;63.35;98843.66;5065689;27;104991;-65
2023/12/28 09:35:18;;;;;;;6.90;4.28;;;;;;;8.08;61.22;98850.22;5083959;27;103227;-66
2023/12/28 09:37:47;;;;;;;4.32;2.92;;;;;;;8.24;61.02;98852.19;5084064;27;103198;-65
2023/12/28 09:40:19;;;;;;;5.13;3.60;;;;;;;8.37;61.63;98862.38;5087612;27;102623;-66
2023/12/28 09:43:17;;;;;;;5.03;2.80;;;;;;;8.43;62.51;98848.56;5064657;27;103764;-65
2023/12/28 09:45:52;;;;;;;4.85;3.03;;;;;;;8.54;61.91;98859.91;5071455;27;103139;-66
2023/12/28 09:48:23;;;;;;;6.35;3.17;;;;;;;8.57;62.74;98852.53;5056173;27;104784;-66
2023/12/28 09:50:55;;;;;;;7.20;3.72;;;;;;;8.59;62.70;98860.28;5054530;27;102737;-66
2023/12/28 09:53:25;;;;;;;4.82;3.00;;;;;;;8.60;63.57;98864.59;5072968;27;103197;-66
2023/12/28 09:55:56;;;;;;;7.18;3.30;;;;;;;8.60;64.65;98867.25;5062948;27;104003;-66
2023/12/28 09:58:27;;;;;;;7.10;4.32;;;;;;;8.61;64.43;98863.63;5054549;27;104046;-66
2023/12/28 10:00:56;;;;;;;8.30;4.95;;;;;;;8.59;64.84;98861.16;5073280;27;104176;-66
2023/12/28 10:03:26;;;;;;;6.00;4.20;;;;;;;8.43;65.24;98867.03;5075085;27;102723;-66
2023/12/28 10:05:55;;;;;;;8.98;5.63;;;;;;;8.48;65.56;98864.00;5070189;27;103252;-66
2023/12/28 10:08:23;;;;;;;7.57;4.95;;;;;;;8.49;65.37;98870.09;5053142;27;104141;-66
2023/12/28 10:10:58;;;;;;;7.30;4.20;;;;;;;8.52;64.79;98869.81;5073230;27;103180;-66
2023/12/28 10:13:27;;;;;;;7.50;4.60;;;;;;;8.54;66.14;98873.97;5065566;27;104044;-65
2023/12/28 10:18:44;;;;;;;5.68;3.70;;;;;;;8.71;65.68;98869.66;5056566;27;103182;-66
2023/12/28 10:21:13;;;;;;;6.53;4.20;;;;;;;8.79;65.81;98866.28;5073588;27;102892;-66
2023/12/28 10:23:42;;;;;;;6.60;3.58;;;;;;;8.81;65.73;98868.75;5072788;27;102784;-66
2023/12/28 10:26:12;;;;;;;7.43;5.03;;;;;;;8.82;66.69;98860.66;5046755;27;104151;-67
2023/12/28 10:28:41;;;;;;;7.10;4.15;;;;;;;8.82;66.54;98871.22;5070842;27;103235;-67
2023/12/28 10:31:09;;;;;;;7.70;5.47;;;;;;;8.85;66.26;98868.28;5071064;27;102659;-67
2023/12/28 10:33:39;;;;;;;6.20;4.13;;;;;;;8.86;66.46;98856.72;5069834;27;103081;-67
2023/12/28 10:36:16;;;;;;;9.45;4.50;;;;;;;8.89;66.72;98850.31;5056276;27;103907;-66
2023/12/28 10:38:46;;;;;;;6.43;4.40;;;;;;;8.85;66.98;98855.06;5072027;27;103128;-67
2023/12/28 10:41:19;;;;;;;5.35;3.85;;;;;;;8.90;66.83;98852.81;5068472;27;102522;-66
2023/12/28 10:43:58;;;;;;;6.30;3.97;;;;;;;8.96;66.77;98851.34;5077099;27;103029;-67
2023/12/28 10:46:27;;;;;;;6.18;3.85;;;;;;;9.03;66.71;98851.59;5051904;27;104265;-66
2023/12/28 10:49:00;;;;;;;7.13;4.88;;;;;;;9.05;67.79;98849.59;5068658;27;103180;-67
2023/12/28 10:51:29;;;;;;;6.38;4.07;;;;;;;9.11;67.61;98859.56;5071596;27;103843;-66
2023/12/28 10:54:21;;;;;;;8.88;5.50;;;;;;;9.09;68.37;98851.78;5065518;27;104571;-66
2023/12/28 10:57:00;;;;;;;8.50;4.85;;;;;;;9.18;67.86;98851.84;5071285;27;103966;-67
2023/12/28 10:59:41;;;;;;;5.65;3.60;;;;;;;9.30;66.54;98842.66;5064086;27;103122;-67
2023/12/28 11:02:12;;;;;;;4.78;2.80;;;;;;;9.44;65.42;98834.13;5048630;27;103009;-66
2023/12/28 11:04:45;;;;;;;4.18;2.40;;;;;;;9.53;65.70;98828.91;5075197;27;103969;-66
2023/12/28 11:07:18;;;;;;;3.70;2.15;;;;;;;9.62;64.95;98826.13;5054703;27;104346;-67
2023/12/28 11:09:46;;;;;;;4.10;1.95;;;;;;;9.73;64.20;98821.53;5054415;27;104298;-67
2023/12/28 11:12:18;;;;;;;4.47;2.10;;;;;;;9.82;63.92;98825.06;5055027;27;103208;-67
2023/12/28 11:14:50;;;;;;;2.55;1.50;;;;;;;9.92;64.04;98825.75;5052331;27;103640;-67
2023/12/28 11:17:21;;;;;;;3.58;1.73;;;;;;;9.95;64.67;98833.38;5076956;27;104269;-66
2023/12/28 11:19:51;;;;;;;2.92;1.70;;;;;;;9.94;64.44;98829.06;5055148;27;104305;-67
2023/12/28 11:22:27;;;;;;;3.15;1.90;;;;;;;10.03;63.87;98825.44;5072228;27;102946;-66
2023/12/28 11:24:55;;;;;;;3.75;1.90;;;;;;;10.07;63.50;98812.72;5058285;27;104112;-67
2023/12/28 11:27:26;;;;;;;3.10;1.85;;;;;;;10.13;63.78;98812.09;5056557;27;103294;-67
2023/12/28 11:29:55;;;;;;;3.45;1.60;;;;;;;10.14;63.71;98811.09;5055997;27;103270;-66
2023/12/28 11:32:23;;;;;;;3.17;1.83;;;;;;;10.18;63.58;98811.56;5054743;27;102624;-67
2023/12/28 11:34:59;;;;;;;2.80;1.80;;;;;;;10.23;63.92;98796.03;5057779;27;102821;-67
2023/12/28 11:37:30;;;;;;;3.30;2.03;;;;;;;10.25;63.40;98794.88;5054578;27;104166;-67
2023/12/28 11:40:01;;;;;;;3.22;1.80;;;;;;;10.21;62.99;98793.56;5055923;27;104111;-66
2023/12/28 11:42:32;;;;;;;2.35;1.50;;;;;;;10.29;62.80;98792.75;5058188;27;102962;-67
2023/12/28 11:45:12;;;;;;;2.75;1.73;;;;;;;10.35;62.28;98802.72;5055072;27;104062;-67
2023/12/28 11:47:40;;;;;;;3.53;1.92;;;;;;;10.34;62.76;98793.09;5049144;27;103871;-67